sensor_id;sensor_type;location;lat;lon;timestamp;temperature;humidity
53876;DHT22;39789;53.216;5.624;2023-08-17T00:00:26;15.20;99.90
53876;DHT22;39789;53.216;5.624;2023-08-17T00:02:52;15.70;99.90
53876;DHT22;39789;53.216;5.624;2023-08-17T00:05:18;15.20;99.90
53876;DHT22;39789;53.216;5.624;2023-08-17T00:07:43;15.10;99.90
53876;DHT22;39789;53.216;5.624;2023-08-17T00:10:09;15.00;99.90
53876;DHT22;39789;53.216;5.624;2023-08-17T00:12:35;15.00;99.90
53876;DHT22;39789;53.216;5.624;2023-08-17T00:15:00;15.00;99.90
53876;DHT22;39789;53.216;5.624;2023-08-17T00:17:26;14.90;99.90
53876;DHT22;39789;53.216;5.624;2023-08-17T00:19:51;15.70;99.90
53876;DHT22;39789;53.216;5.624;2023-08-17T00:22:17;14.90;99.90
53876;DHT22;39789;53.216;5.624;2023-08-17T00:24:43;14.80;99.90
53876;DHT22;39789;53.216;5.624;2023-08-17T00:27:10;14.80;99.90
53876;DHT22;39789;53.216;5.624;2023-08-17T00:29:36;14.80;99.90
53876;DHT22;39789;53.216;5.624;2023-08-17T00:32:03;14.70;99.90
53876;DHT22;39789;53.216;5.624;2023-08-17T00:34:28;14.70;99.90
53876;DHT22;39789;53.216;5.624;2023-08-17T00:36:54;14.70;99.90
53876;DHT22;39789;53.216;5.624;2023-08-17T00:39:19;14.80;99.90
53876;DHT22;39789;53.216;5.624;2023-08-17T00:41:45;14.80;99.90
53876;DHT22;39789;53.216;5.624;2023-08-17T00:44:12;14.70;99.90
53876;DHT22;39789;53.216;5.624;2023-08-17T00:46:38;14.70;99.90
53876;DHT22;39789;53.216;5.624;2023-08-17T00:49:05;14.70;99.90
53876;DHT22;39789;53.216;5.624;2023-08-17T00:51:31;14.70;99.90
53876;DHT22;39789;53.216;5.624;2023-08-17T00:53:59;15.40;99.90
53876;DHT22;39789;53.216;5.624;2023-08-17T00:56:25;14.70;99.90
53876;DHT22;39789;53.216;5.624;2023-08-17T00:58:51;14.60;99.90
53876;DHT22;39789;53.216;5.624;2023-08-17T01:01:20;14.70;99.90
53876;DHT22;39789;53.216;5.624;2023-08-17T01:03:46;14.60;99.90
53876;DHT22;39789;53.216;5.624;2023-08-17T01:06:12;14.60;99.90
53876;DHT22;39789;53.216;5.624;2023-08-17T01:08:38;14.60;99.90
53876;DHT22;39789;53.216;5.624;2023-08-17T01:11:18;14.60;99.90
53876;DHT22;39789;53.216;5.624;2023-08-17T01:16:54;14.50;99.90
53876;DHT22;39789;53.216;5.624;2023-08-17T01:19:26;14.50;99.90
53876;DHT22;39789;53.216;5.624;2023-08-17T01:21:55;14.50;99.90
53876;DHT22;39789;53.216;5.624;2023-08-17T01:24:22;14.50;99.90
53876;DHT22;39789;53.216;5.624;2023-08-17T01:26:48;14.50;99.90
53876;DHT22;39789;53.216;5.624;2023-08-17T01:29:13;14.50;99.90
53876;DHT22;39789;53.216;5.624;2023-08-17T01:34:57;14.50;99.90
53876;DHT22;39789;53.216;5.624;2023-08-17T01:37:26;14.50;99.90
53876;DHT22;39789;53.216;5.624;2023-08-17T01:39:55;14.50;99.90
53876;DHT22;39789;53.216;5.624;2023-08-17T01:42:22;14.50;99.90
53876;DHT22;39789;53.216;5.624;2023-08-17T01:44:49;14.50;99.90
53876;DHT22;39789;53.216;5.624;2023-08-17T01:47:15;14.50;99.90
53876;DHT22;39789;53.216;5.624;2023-08-17T01:49:40;14.40;99.90
53876;DHT22;39789;53.216;5.624;2023-08-17T01:52:06;14.50;99.90
53876;DHT22;39789;53.216;5.624;2023-08-17T01:54:32;14.50;99.90
53876;DHT22;39789;53.216;5.624;2023-08-17T01:56:57;14.40;99.90
53876;DHT22;39789;53.216;5.624;2023-08-17T01:59:23;14.40;99.90
53876;DHT22;39789;53.216;5.624;2023-08-17T02:01:48;15.50;99.90
53876;DHT22;39789;53.216;5.624;2023-08-17T02:04:15;14.40;99.90
53876;DHT22;39789;53.216;5.624;2023-08-17T02:06:41;15.40;99.90
53876;DHT22;39789;53.216;5.624;2023-08-17T02:09:06;14.30;99.90
53876;DHT22;39789;53.216;5.624;2023-08-17T02:11:32;15.20;99.90
53876;DHT22;39789;53.216;5.624;2023-08-17T02:13:58;14.30;99.90
53876;DHT22;39789;53.216;5.624;2023-08-17T02:16:23;14.30;99.90
53876;DHT22;39789;53.216;5.624;2023-08-17T02:18:49;14.60;99.90
53876;DHT22;39789;53.216;5.624;2023-08-17T02:21:14;14.30;99.90
53876;DHT22;39789;53.216;5.624;2023-08-17T02:23:40;15.80;99.90
53876;DHT22;39789;53.216;5.624;2023-08-17T02:26:06;14.20;99.90
53876;DHT22;39789;53.216;5.624;2023-08-17T02:28:31;14.40;99.90
53876;DHT22;39789;53.216;5.624;2023-08-17T02:30:59;14.40;99.90
53876;DHT22;39789;53.216;5.624;2023-08-17T02:33:27;15.60;99.90
53876;DHT22;39789;53.216;5.624;2023-08-17T02:35:53;14.50;99.90
53876;DHT22;39789;53.216;5.624;2023-08-17T02:38:19;15.20;99.90
53876;DHT22;39789;53.216;5.624;2023-08-17T02:40:44;14.30;99.90
53876;DHT22;39789;53.216;5.624;2023-08-17T02:43:10;15.40;99.90
53876;DHT22;39789;53.216;5.624;2023-08-17T02:45:35;14.40;99.90
53876;DHT22;39789;53.216;5.624;2023-08-17T02:48:01;14.30;99.90
53876;DHT22;39789;53.216;5.624;2023-08-17T02:50:27;15.20;99.90
53876;DHT22;39789;53.216;5.624;2023-08-17T02:52:52;14.30;99.90
53876;DHT22;39789;53.216;5.624;2023-08-17T02:55:18;14.30;99.90
53876;DHT22;39789;53.216;5.624;2023-08-17T02:57:43;14.30;99.90
53876;DHT22;39789;53.216;5.624;2023-08-17T03:00:09;15.30;99.90
53876;DHT22;39789;53.216;5.624;2023-08-17T03:02:35;14.30;99.90
53876;DHT22;39789;53.216;5.624;2023-08-17T03:05:01;14.30;99.90
53876;DHT22;39789;53.216;5.624;2023-08-17T03:07:27;14.30;99.90
53876;DHT22;39789;53.216;5.624;2023-08-17T03:09:52;14.30;99.90
53876;DHT22;39789;53.216;5.624;2023-08-17T03:12:18;14.30;99.90
53876;DHT22;39789;53.216;5.624;2023-08-17T03:14:46;15.50;99.90
53876;DHT22;39789;53.216;5.624;2023-08-17T03:17:12;14.50;99.90
53876;DHT22;39789;53.216;5.624;2023-08-17T03:19:37;14.30;99.90
53876;DHT22;39789;53.216;5.624;2023-08-17T03:22:05;14.30;99.90
53876;DHT22;39789;53.216;5.624;2023-08-17T03:24:31;14.40;99.90
53876;DHT22;39789;53.216;5.624;2023-08-17T03:26:57;14.40;99.90
53876;DHT22;39789;53.216;5.624;2023-08-17T03:29:22;14.30;99.90
53876;DHT22;39789;53.216;5.624;2023-08-17T03:31:48;14.60;99.90
53876;DHT22;39789;53.216;5.624;2023-08-17T03:34:15;14.70;99.90
53876;DHT22;39789;53.216;5.624;2023-08-17T03:36:40;14.70;99.90
53876;DHT22;39789;53.216;5.624;2023-08-17T03:39:06;14.80;99.90
53876;DHT22;39789;53.216;5.624;2023-08-17T03:41:32;14.80;99.90
53876;DHT22;39789;53.216;5.624;2023-08-17T03:43:58;14.90;99.90
53876;DHT22;39789;53.216;5.624;2023-08-17T03:46:23;14.90;99.90
53876;DHT22;39789;53.216;5.624;2023-08-17T03:48:49;14.90;99.90
53876;DHT22;39789;53.216;5.624;2023-08-17T03:51:15;14.90;99.90
53876;DHT22;39789;53.216;5.624;2023-08-17T03:53:40;14.90;99.90
53876;DHT22;39789;53.216;5.624;2023-08-17T03:56:06;14.80;99.90
53876;DHT22;39789;53.216;5.624;2023-08-17T03:58:31;14.90;99.90
53876;DHT22;39789;53.216;5.624;2023-08-17T04:00:59;15.90;99.90
53876;DHT22;39789;53.216;5.624;2023-08-17T04:03:25;14.60;99.90
53876;DHT22;39789;53.216;5.624;2023-08-17T04:05:51;15.60;99.90
53876;DHT22;39789;53.216;5.624;2023-08-17T04:08:16;15.60;99.90
53876;DHT22;39789;53.216;5.624;2023-08-17T04:10:42;15.70;99.90
53876;DHT22;39789;53.216;5.624;2023-08-17T04:13:07;15.80;99.90
53876;DHT22;39789;53.216;5.624;2023-08-17T04:15:33;14.70;99.90
53876;DHT22;39789;53.216;5.624;2023-08-17T04:17:59;14.70;99.90
53876;DHT22;39789;53.216;5.624;2023-08-17T04:20:24;14.70;99.90
53876;DHT22;39789;53.216;5.624;2023-08-17T04:22:51;14.70;99.90
53876;DHT22;39789;53.216;5.624;2023-08-17T04:25:17;15.40;99.90
53876;DHT22;39789;53.216;5.624;2023-08-17T04:27:42;14.70;99.90
53876;DHT22;39789;53.216;5.624;2023-08-17T04:30:09;14.70;99.90
53876;DHT22;39789;53.216;5.624;2023-08-17T04:32:34;14.70;99.90
53876;DHT22;39789;53.216;5.624;2023-08-17T04:35:00;14.70;99.90
53876;DHT22;39789;53.216;5.624;2023-08-17T04:37:26;15.60;99.90
53876;DHT22;39789;53.216;5.624;2023-08-17T04:39:52;14.60;99.90
53876;DHT22;39789;53.216;5.624;2023-08-17T04:42:18;14.60;99.90
53876;DHT22;39789;53.216;5.624;2023-08-17T04:44:45;14.60;99.90
53876;DHT22;39789;53.216;5.624;2023-08-17T04:47:11;14.60;99.90
53876;DHT22;39789;53.216;5.624;2023-08-17T04:49:36;14.60;99.90
53876;DHT22;39789;53.216;5.624;2023-08-17T04:52:03;14.60;99.90
53876;DHT22;39789;53.216;5.624;2023-08-17T04:54:29;14.60;99.90
53876;DHT22;39789;53.216;5.624;2023-08-17T04:56:55;14.70;99.90
53876;DHT22;39789;53.216;5.624;2023-08-17T04:59:20;14.80;99.90
53876;DHT22;39789;53.216;5.624;2023-08-17T05:01:46;15.40;99.90
53876;DHT22;39789;53.216;5.624;2023-08-17T05:04:12;15.60;99.90
53876;DHT22;39789;53.216;5.624;2023-08-17T05:06:38;15.50;99.90
53876;DHT22;39789;53.216;5.624;2023-08-17T05:09:04;15.80;99.90
53876;DHT22;39789;53.216;5.624;2023-08-17T05:11:30;15.80;99.90
53876;DHT22;39789;53.216;5.624;2023-08-17T05:13:56;15.70;99.90
53876;DHT22;39789;53.216;5.624;2023-08-17T05:16:22;15.50;99.90
53876;DHT22;39789;53.216;5.624;2023-08-17T05:18:47;15.40;99.90
53876;DHT22;39789;53.216;5.624;2023-08-17T05:21:13;15.30;99.90
53876;DHT22;39789;53.216;5.624;2023-08-17T05:23:39;15.40;99.90
53876;DHT22;39789;53.216;5.624;2023-08-17T05:26:04;15.80;99.90
53876;DHT22;39789;53.216;5.624;2023-08-17T05:28:30;15.20;99.90
53876;DHT22;39789;53.216;5.624;2023-08-17T05:30:55;15.80;99.90
53876;DHT22;39789;53.216;5.624;2023-08-17T05:33:22;15.90;99.90
53876;DHT22;39789;53.216;5.624;2023-08-17T05:35:53;16.00;99.90
53876;DHT22;39789;53.216;5.624;2023-08-17T05:38:19;16.60;99.90
53876;DHT22;39789;53.216;5.624;2023-08-17T05:40:45;16.90;99.90
53876;DHT22;39789;53.216;5.624;2023-08-17T05:43:10;15.90;99.90
53876;DHT22;39789;53.216;5.624;2023-08-17T05:45:39;16.00;99.90
53876;DHT22;39789;53.216;5.624;2023-08-17T05:48:05;16.20;99.90
53876;DHT22;39789;53.216;5.624;2023-08-17T05:50:31;16.40;99.90
53876;DHT22;39789;53.216;5.624;2023-08-17T05:52:56;17.50;99.90
53876;DHT22;39789;53.216;5.624;2023-08-17T05:55:22;16.40;99.90
53876;DHT22;39789;53.216;5.624;2023-08-17T05:57:47;16.40;99.90
53876;DHT22;39789;53.216;5.624;2023-08-17T06:00:13;16.30;99.90
53876;DHT22;39789;53.216;5.624;2023-08-17T06:02:39;16.40;99.90
53876;DHT22;39789;53.216;5.624;2023-08-17T06:05:05;16.40;99.90
53876;DHT22;39789;53.216;5.624;2023-08-17T06:07:31;16.50;99.90
53876;DHT22;39789;53.216;5.624;2023-08-17T06:09:57;16.50;99.90
53876;DHT22;39789;53.216;5.624;2023-08-17T06:12:22;17.10;99.90
53876;DHT22;39789;53.216;5.624;2023-08-17T06:14:48;17.50;99.90
53876;DHT22;39789;53.216;5.624;2023-08-17T06:17:13;16.10;99.90
53876;DHT22;39789;53.216;5.624;2023-08-17T06:19:39;17.80;99.90
53876;DHT22;39789;53.216;5.624;2023-08-17T06:22:05;16.90;99.90
53876;DHT22;39789;53.216;5.624;2023-08-17T06:24:30;16.80;99.90
53876;DHT22;39789;53.216;5.624;2023-08-17T06:26:56;17.80;99.90
53876;DHT22;39789;53.216;5.624;2023-08-17T06:29:22;16.90;99.90
53876;DHT22;39789;53.216;5.624;2023-08-17T06:31:48;17.00;99.90
53876;DHT22;39789;53.216;5.624;2023-08-17T06:34:13;18.10;99.90
53876;DHT22;39789;53.216;5.624;2023-08-17T06:36:39;17.10;99.90
53876;DHT22;39789;53.216;5.624;2023-08-17T06:39:05;17.10;99.90
53876;DHT22;39789;53.216;5.624;2023-08-17T06:41:30;18.30;99.90
53876;DHT22;39789;53.216;5.624;2023-08-17T06:43:58;17.50;99.90
53876;DHT22;39789;53.216;5.624;2023-08-17T06:46:25;18.20;99.90
53876;DHT22;39789;53.216;5.624;2023-08-17T06:48:50;17.60;99.90
53876;DHT22;39789;53.216;5.624;2023-08-17T06:51:16;17.90;99.90
53876;DHT22;39789;53.216;5.624;2023-08-17T06:53:41;18.30;99.90
53876;DHT22;39789;53.216;5.624;2023-08-17T06:56:09;17.30;99.90
53876;DHT22;39789;53.216;5.624;2023-08-17T06:58:34;17.20;99.90
53876;DHT22;39789;53.216;5.624;2023-08-17T07:01:00;17.40;99.90
53876;DHT22;39789;53.216;5.624;2023-08-17T07:03:26;17.00;99.90
53876;DHT22;39789;53.216;5.624;2023-08-17T07:05:51;17.00;99.90
53876;DHT22;39789;53.216;5.624;2023-08-17T07:08:17;17.10;99.90
53876;DHT22;39789;53.216;5.624;2023-08-17T07:10:42;17.10;99.90
53876;DHT22;39789;53.216;5.624;2023-08-17T07:13:08;17.30;99.90
53876;DHT22;39789;53.216;5.624;2023-08-17T07:15:33;17.50;99.90
53876;DHT22;39789;53.216;5.624;2023-08-17T07:17:59;18.70;99.90
53876;DHT22;39789;53.216;5.624;2023-08-17T07:20:25;17.90;99.90
53876;DHT22;39789;53.216;5.624;2023-08-17T07:22:50;17.90;99.90
53876;DHT22;39789;53.216;5.624;2023-08-17T07:25:16;18.00;99.90
53876;DHT22;39789;53.216;5.624;2023-08-17T07:27:42;18.00;99.90
53876;DHT22;39789;53.216;5.624;2023-08-17T07:30:08;19.20;99.90
53876;DHT22;39789;53.216;5.624;2023-08-17T07:32:34;18.20;99.90
53876;DHT22;39789;53.216;5.624;2023-08-17T07:35:00;18.20;99.90
53876;DHT22;39789;53.216;5.624;2023-08-17T07:37:25;18.20;99.90
53876;DHT22;39789;53.216;5.624;2023-08-17T07:39:58;18.20;99.90
53876;DHT22;39789;53.216;5.624;2023-08-17T07:42:23;18.30;99.90
53876;DHT22;39789;53.216;5.624;2023-08-17T07:44:49;18.30;99.90
53876;DHT22;39789;53.216;5.624;2023-08-17T07:47:15;18.30;99.90
53876;DHT22;39789;53.216;5.624;2023-08-17T07:49:40;18.50;99.90
53876;DHT22;39789;53.216;5.624;2023-08-17T07:52:06;18.60;99.90
53876;DHT22;39789;53.216;5.624;2023-08-17T07:54:32;19.20;99.40
53876;DHT22;39789;53.216;5.624;2023-08-17T07:56:57;19.20;98.80
53876;DHT22;39789;53.216;5.624;2023-08-17T07:59:23;19.10;98.70
53876;DHT22;39789;53.216;5.624;2023-08-17T08:01:48;18.80;98.90
53876;DHT22;39789;53.216;5.624;2023-08-17T08:04:14;18.90;98.90
53876;DHT22;39789;53.216;5.624;2023-08-17T08:06:40;18.90;98.60
53876;DHT22;39789;53.216;5.624;2023-08-17T08:09:05;19.00;98.80
53876;DHT22;39789;53.216;5.624;2023-08-17T08:11:31;19.10;98.80
53876;DHT22;39789;53.216;5.624;2023-08-17T08:13:57;19.10;98.20
53876;DHT22;39789;53.216;5.624;2023-08-17T08:16:23;19.10;98.10
53876;DHT22;39789;53.216;5.624;2023-08-17T08:18:48;19.00;98.00
53876;DHT22;39789;53.216;5.624;2023-08-17T08:21:14;18.70;98.20
53876;DHT22;39789;53.216;5.624;2023-08-17T08:23:39;18.50;98.90
53876;DHT22;39789;53.216;5.624;2023-08-17T08:26:05;19.20;99.50
53876;DHT22;39789;53.216;5.624;2023-08-17T08:28:31;18.80;99.60
53876;DHT22;39789;53.216;5.624;2023-08-17T08:31:04;19.30;99.60
53876;DHT22;39789;53.216;5.624;2023-08-17T08:33:30;18.30;99.50
53876;DHT22;39789;53.216;5.624;2023-08-17T08:35:56;18.30;99.60
53876;DHT22;39789;53.216;5.624;2023-08-17T08:38:21;19.30;99.80
53876;DHT22;39789;53.216;5.624;2023-08-17T08:40:47;19.20;99.00
53876;DHT22;39789;53.216;5.624;2023-08-17T08:43:15;20.20;98.80
53876;DHT22;39789;53.216;5.624;2023-08-17T08:45:44;19.30;97.70
53876;DHT22;39789;53.216;5.624;2023-08-17T08:48:11;19.50;97.20
53876;DHT22;39789;53.216;5.624;2023-08-17T08:50:39;19.50;96.70
53876;DHT22;39789;53.216;5.624;2023-08-17T08:53:14;19.30;96.10
53876;DHT22;39789;53.216;5.624;2023-08-17T08:55:58;19.40;95.30
53876;DHT22;39789;53.216;5.624;2023-08-17T08:58:25;19.70;94.10
53876;DHT22;39789;53.216;5.624;2023-08-17T09:00:52;19.50;95.50
53876;DHT22;39789;53.216;5.624;2023-08-17T09:03:19;19.40;94.60
53876;DHT22;39789;53.216;5.624;2023-08-17T09:05:49;19.20;95.50
53876;DHT22;39789;53.216;5.624;2023-08-17T09:08:20;19.60;96.00
53876;DHT22;39789;53.216;5.624;2023-08-17T09:10:46;19.00;96.50
53876;DHT22;39789;53.216;5.624;2023-08-17T09:13:12;18.90;96.90
53876;DHT22;39789;53.216;5.624;2023-08-17T09:15:38;19.20;97.20
53876;DHT22;39789;53.216;5.624;2023-08-17T09:18:05;19.70;97.20
53876;DHT22;39789;53.216;5.624;2023-08-17T09:20:42;19.10;96.50
53876;DHT22;39789;53.216;5.624;2023-08-17T09:23:16;19.40;96.70
53876;DHT22;39789;53.216;5.624;2023-08-17T09:25:43;19.10;96.20
53876;DHT22;39789;53.216;5.624;2023-08-17T09:28:11;19.00;96.10
53876;DHT22;39789;53.216;5.624;2023-08-17T09:31:01;19.10;96.60
53876;DHT22;39789;53.216;5.624;2023-08-17T09:33:30;19.00;96.10
53876;DHT22;39789;53.216;5.624;2023-08-17T09:35:58;19.10;96.50
53876;DHT22;39789;53.216;5.624;2023-08-17T09:38:24;19.30;96.60
53876;DHT22;39789;53.216;5.624;2023-08-17T09:40:50;19.30;96.50
53876;DHT22;39789;53.216;5.624;2023-08-17T09:43:16;19.20;96.20
53876;DHT22;39789;53.216;5.624;2023-08-17T09:45:45;19.60;96.20
53876;DHT22;39789;53.216;5.624;2023-08-17T09:48:17;19.80;95.40
53876;DHT22;39789;53.216;5.624;2023-08-17T09:50:44;19.10;95.00
53876;DHT22;39789;53.216;5.624;2023-08-17T09:53:14;19.20;95.00
53876;DHT22;39789;53.216;5.624;2023-08-17T09:55:41;19.40;94.40
53876;DHT22;39789;53.216;5.624;2023-08-17T09:58:07;19.40;93.00
53876;DHT22;39789;53.216;5.624;2023-08-17T10:00:45;19.40;93.40
53876;DHT22;39789;53.216;5.624;2023-08-17T10:03:14;19.60;92.80
53876;DHT22;39789;53.216;5.624;2023-08-17T10:05:42;19.60;91.00
53876;DHT22;39789;53.216;5.624;2023-08-17T10:08:10;19.50;91.80
53876;DHT22;39789;53.216;5.624;2023-08-17T10:10:40;19.50;92.40
53876;DHT22;39789;53.216;5.624;2023-08-17T10:13:12;19.90;92.30
53876;DHT22;39789;53.216;5.624;2023-08-17T10:21:39;19.80;90.60
53876;DHT22;39789;53.216;5.624;2023-08-17T10:24:06;19.90;90.90
53876;DHT22;39789;53.216;5.624;2023-08-17T10:26:33;19.90;90.70
53876;DHT22;39789;53.216;5.624;2023-08-17T10:28:59;19.80;91.10
53876;DHT22;39789;53.216;5.624;2023-08-17T10:31:27;19.70;91.40
53876;DHT22;39789;53.216;5.624;2023-08-17T10:33:53;20.90;91.80
53876;DHT22;39789;53.216;5.624;2023-08-17T10:36:19;20.60;91.80
53876;DHT22;39789;53.216;5.624;2023-08-17T10:38:46;20.60;92.40
53876;DHT22;39789;53.216;5.624;2023-08-17T10:41:13;20.30;91.70
53876;DHT22;39789;53.216;5.624;2023-08-17T10:43:58;20.80;91.70
53876;DHT22;39789;53.216;5.624;2023-08-17T10:46:35;20.30;90.60
53876;DHT22;39789;53.216;5.624;2023-08-17T10:49:06;20.30;91.70
53876;DHT22;39789;53.216;5.624;2023-08-17T10:51:33;19.80;91.30
53876;DHT22;39789;53.216;5.624;2023-08-17T10:54:01;19.90;91.90
53876;DHT22;39789;53.216;5.624;2023-08-17T10:56:28;20.10;91.10
53876;DHT22;39789;53.216;5.624;2023-08-17T10:58:58;21.00;91.30
53876;DHT22;39789;53.216;5.624;2023-08-17T11:01:35;21.00;91.20
53876;DHT22;39789;53.216;5.624;2023-08-17T11:04:16;20.70;91.40
53876;DHT22;39789;53.216;5.624;2023-08-17T11:06:43;21.30;91.50
53876;DHT22;39789;53.216;5.624;2023-08-17T11:09:09;20.30;92.10
53876;DHT22;39789;53.216;5.624;2023-08-17T11:11:35;20.50;92.20
53876;DHT22;39789;53.216;5.624;2023-08-17T11:14:01;20.20;92.20
53876;DHT22;39789;53.216;5.624;2023-08-17T11:16:26;20.10;92.50
53876;DHT22;39789;53.216;5.624;2023-08-17T11:18:52;20.00;93.00
53876;DHT22;39789;53.216;5.624;2023-08-17T11:21:18;20.10;93.60
53876;DHT22;39789;53.216;5.624;2023-08-17T11:23:44;19.80;93.70
53876;DHT22;39789;53.216;5.624;2023-08-17T11:26:09;19.70;93.00
53876;DHT22;39789;53.216;5.624;2023-08-17T11:28:35;19.90;92.80
53876;DHT22;39789;53.216;5.624;2023-08-17T11:31:20;19.70;92.60
53876;DHT22;39789;53.216;5.624;2023-08-17T11:33:45;19.80;93.30
53876;DHT22;39789;53.216;5.624;2023-08-17T11:36:12;20.00;92.50
53876;DHT22;39789;53.216;5.624;2023-08-17T11:38:40;20.10;92.60
53876;DHT22;39789;53.216;5.624;2023-08-17T11:41:06;20.30;92.40
53876;DHT22;39789;53.216;5.624;2023-08-17T11:43:34;19.80;92.20
53876;DHT22;39789;53.216;5.624;2023-08-17T11:46:01;19.80;92.10
53876;DHT22;39789;53.216;5.624;2023-08-17T11:48:27;19.70;92.30
53876;DHT22;39789;53.216;5.624;2023-08-17T11:50:53;19.70;92.80
53876;DHT22;39789;53.216;5.624;2023-08-17T11:53:20;20.60;93.00
53876;DHT22;39789;53.216;5.624;2023-08-17T11:55:46;20.50;92.90
53876;DHT22;39789;53.216;5.624;2023-08-17T11:58:11;20.30;92.90
53876;DHT22;39789;53.216;5.624;2023-08-17T12:00:42;20.90;92.80
53876;DHT22;39789;53.216;5.624;2023-08-17T12:03:16;19.90;92.40
53876;DHT22;39789;53.216;5.624;2023-08-17T12:05:43;19.80;92.40
53876;DHT22;39789;53.216;5.624;2023-08-17T12:08:09;19.80;92.30
53876;DHT22;39789;53.216;5.624;2023-08-17T12:10:37;20.40;92.70
53876;DHT22;39789;53.216;5.624;2023-08-17T12:13:03;19.90;92.30
53876;DHT22;39789;53.216;5.624;2023-08-17T12:15:35;19.70;92.30
53876;DHT22;39789;53.216;5.624;2023-08-17T12:18:03;19.70;91.80
53876;DHT22;39789;53.216;5.624;2023-08-17T12:20:29;19.60;91.80
53876;DHT22;39789;53.216;5.624;2023-08-17T12:22:57;19.80;92.20
53876;DHT22;39789;53.216;5.624;2023-08-17T12:25:24;19.80;92.20
53876;DHT22;39789;53.216;5.624;2023-08-17T12:27:50;19.90;91.90
53876;DHT22;39789;53.216;5.624;2023-08-17T12:30:27;20.40;91.90
53876;DHT22;39789;53.216;5.624;2023-08-17T12:32:53;19.90;91.60
53876;DHT22;39789;53.216;5.624;2023-08-17T12:35:19;20.00;91.80
53876;DHT22;39789;53.216;5.624;2023-08-17T12:37:47;20.00;91.70
53876;DHT22;39789;53.216;5.624;2023-08-17T12:40:13;20.10;91.60
53876;DHT22;39789;53.216;5.624;2023-08-17T12:42:39;20.00;91.60
53876;DHT22;39789;53.216;5.624;2023-08-17T12:45:04;19.90;91.60
53876;DHT22;39789;53.216;5.624;2023-08-17T12:47:30;19.90;91.50
53876;DHT22;39789;53.216;5.624;2023-08-17T12:49:56;20.40;92.00
53876;DHT22;39789;53.216;5.624;2023-08-17T12:52:21;20.10;91.90
53876;DHT22;39789;53.216;5.624;2023-08-17T12:54:47;20.10;92.10
53876;DHT22;39789;53.216;5.624;2023-08-17T12:57:12;20.80;92.40
53876;DHT22;39789;53.216;5.624;2023-08-17T12:59:38;20.10;91.50
53876;DHT22;39789;53.216;5.624;2023-08-17T13:02:04;20.10;91.60
53876;DHT22;39789;53.216;5.624;2023-08-17T13:04:29;20.00;91.80
53876;DHT22;39789;53.216;5.624;2023-08-17T13:06:55;20.10;92.10
53876;DHT22;39789;53.216;5.624;2023-08-17T13:09:21;20.00;91.60
53876;DHT22;39789;53.216;5.624;2023-08-17T13:11:46;20.00;91.60
53876;DHT22;39789;53.216;5.624;2023-08-17T13:14:14;20.50;92.40
53876;DHT22;39789;53.216;5.624;2023-08-17T13:16:40;19.70;92.70
53876;DHT22;39789;53.216;5.624;2023-08-17T13:19:06;19.50;92.80
53876;DHT22;39789;53.216;5.624;2023-08-17T13:21:32;20.10;93.70
53876;DHT22;39789;53.216;5.624;2023-08-17T13:23:57;19.80;94.10
53876;DHT22;39789;53.216;5.624;2023-08-17T13:26:26;19.40;94.40
53876;DHT22;39789;53.216;5.624;2023-08-17T13:28:51;19.20;94.70
53876;DHT22;39789;53.216;5.624;2023-08-17T13:31:17;20.40;95.30
53876;DHT22;39789;53.216;5.624;2023-08-17T13:33:43;20.30;95.10
53876;DHT22;39789;53.216;5.624;2023-08-17T13:36:08;19.40;94.90
53876;DHT22;39789;53.216;5.624;2023-08-17T13:38:34;20.10;95.10
53876;DHT22;39789;53.216;5.624;2023-08-17T13:40:59;19.20;95.00
53876;DHT22;39789;53.216;5.624;2023-08-17T13:43:25;20.10;95.40
53876;DHT22;39789;53.216;5.624;2023-08-17T13:45:51;19.00;95.50
53876;DHT22;39789;53.216;5.624;2023-08-17T13:48:16;19.90;95.90
53876;DHT22;39789;53.216;5.624;2023-08-17T13:50:42;19.00;96.10
53876;DHT22;39789;53.216;5.624;2023-08-17T13:53:07;19.00;96.20
53876;DHT22;39789;53.216;5.624;2023-08-17T13:55:33;19.00;96.00
53876;DHT22;39789;53.216;5.624;2023-08-17T13:57:59;19.10;96.40
53876;DHT22;39789;53.216;5.624;2023-08-17T14:00:25;19.10;96.20
53876;DHT22;39789;53.216;5.624;2023-08-17T14:02:52;19.20;96.30
53876;DHT22;39789;53.216;5.624;2023-08-17T14:05:18;19.20;96.20
53876;DHT22;39789;53.216;5.624;2023-08-17T14:07:44;19.20;96.40
53876;DHT22;39789;53.216;5.624;2023-08-17T14:10:10;19.20;96.40
53876;DHT22;39789;53.216;5.624;2023-08-17T14:12:35;20.00;96.30
53876;DHT22;39789;53.216;5.624;2023-08-17T14:15:01;19.80;96.50
53876;DHT22;39789;53.216;5.624;2023-08-17T14:17:27;19.30;96.30
53876;DHT22;39789;53.216;5.624;2023-08-17T14:19:53;19.70;96.40
53876;DHT22;39789;53.216;5.624;2023-08-17T14:22:20;19.70;96.40
53876;DHT22;39789;53.216;5.624;2023-08-17T14:24:45;19.50;96.60
53876;DHT22;39789;53.216;5.624;2023-08-17T14:27:11;20.30;96.80
53876;DHT22;39789;53.216;5.624;2023-08-17T14:29:36;20.00;96.90
53876;DHT22;39789;53.216;5.624;2023-08-17T14:32:02;19.60;96.80
53876;DHT22;39789;53.216;5.624;2023-08-17T14:34:28;19.00;96.80
53876;DHT22;39789;53.216;5.624;2023-08-17T14:36:54;19.60;97.20
53876;DHT22;39789;53.216;5.624;2023-08-17T14:39:22;19.50;97.20
53876;DHT22;39789;53.216;5.624;2023-08-17T14:41:48;19.80;97.60
53876;DHT22;39789;53.216;5.624;2023-08-17T14:44:14;20.00;97.70
53876;DHT22;39789;53.216;5.624;2023-08-17T14:46:39;19.80;97.70
53876;DHT22;39789;53.216;5.624;2023-08-17T14:49:05;19.00;97.70
53876;DHT22;39789;53.216;5.624;2023-08-17T14:51:40;18.90;97.50
53876;DHT22;39789;53.216;5.624;2023-08-17T14:54:06;18.80;97.70
53876;DHT22;39789;53.216;5.624;2023-08-17T14:56:33;18.70;97.80
53876;DHT22;39789;53.216;5.624;2023-08-17T14:58:58;18.60;98.20
53876;DHT22;39789;53.216;5.624;2023-08-17T15:01:24;19.00;98.40
53876;DHT22;39789;53.216;5.624;2023-08-17T15:03:49;18.50;98.50
53876;DHT22;39789;53.216;5.624;2023-08-17T15:06:15;18.50;98.50
53876;DHT22;39789;53.216;5.624;2023-08-17T15:08:41;19.00;99.10
53876;DHT22;39789;53.216;5.624;2023-08-17T15:11:07;18.40;99.20
53876;DHT22;39789;53.216;5.624;2023-08-17T15:13:32;18.50;99.30
53876;DHT22;39789;53.216;5.624;2023-08-17T15:15:58;19.30;99.50
53876;DHT22;39789;53.216;5.624;2023-08-17T15:18:24;18.70;99.20
53876;DHT22;39789;53.216;5.624;2023-08-17T15:20:49;18.90;99.20
53876;DHT22;39789;53.216;5.624;2023-08-17T15:23:15;19.40;99.80
53876;DHT22;39789;53.216;5.624;2023-08-17T15:25:40;18.70;99.70
53876;DHT22;39789;53.216;5.624;2023-08-17T15:28:06;19.90;99.90
53876;DHT22;39789;53.216;5.624;2023-08-17T15:30:32;18.90;99.70
53876;DHT22;39789;53.216;5.624;2023-08-17T15:32:57;18.50;99.80
53876;DHT22;39789;53.216;5.624;2023-08-17T15:35:23;19.20;99.90
53876;DHT22;39789;53.216;5.624;2023-08-17T15:37:49;19.40;99.90